Ainsworth, Nebraska
Current Conditions -  °F | °C
As of 4:35 PM on Tuesday 21 Oct 2014 (Local Time) from KANW Reporting Station
Clear Clear  
Wind Chill: 75°   Ceiling: Unl
Heat Index: 75°   Visibility: 10mi
Dew Point: 40°   Wind: 23mph
Humidity: 28%   Direction: 180°S
Pressure: 29.89"   Gusts: 29mph
Location:  42.55°N, 99.86°W
Report Text: KANW 212135Z AUTO 18020G25KT 10SM CLR 24/04 A2989 RMK AO2 T02400042
Loading
Personal Weather Stations






























Interactive Weather Map New forecast layout! Learn more

10-Day Weather Forecast

Advertisements
Track Severe Weather on mobile